createdAt,value
2018-03-31T00:01:49.803Z,99266.36
2018-03-31T00:04:17.536Z,99261.63
2018-03-31T00:06:45.271Z,99267.48
2018-03-31T00:09:12.987Z,99268.28
2018-03-31T00:11:41.187Z,99274.39
2018-03-31T00:14:08.913Z,99269.53
2018-03-31T00:16:36.643Z,99259.09
2018-03-31T00:19:04.358Z,99264.22
2018-03-31T00:21:32.086Z,99259.33
2018-03-31T00:23:59.823Z,99259.28
2018-03-31T00:26:27.555Z,99257.34
2018-03-31T00:28:55.276Z,99248.40
2018-03-31T00:31:23.157Z,99244.48
2018-03-31T00:33:50.892Z,99237.05
2018-03-31T00:36:18.603Z,99243.75
2018-03-31T00:38:46.338Z,99245.94
2018-03-31T00:41:14.064Z,99243.61
2018-03-31T00:43:41.803Z,99247.70
2018-03-31T00:46:09.518Z,99246.30
2018-03-31T00:48:37.244Z,99251.33
2018-03-31T00:51:04.967Z,99253.42
2018-03-31T00:53:32.936Z,99254.95
2018-03-31T00:56:07.955Z,99252.56
2018-03-31T00:58:35.679Z,99256.94
2018-03-31T01:01:04.327Z,99245.72
2018-03-31T01:03:32.079Z,99252.30
2018-03-31T01:05:59.792Z,99257.37
2018-03-31T01:08:27.525Z,99260.09
2018-03-31T01:10:55.255Z,99266.44
2018-03-31T01:13:23.004Z,99264.80
2018-03-31T01:15:50.740Z,99269.84
2018-03-31T01:18:18.539Z,99257.17
2018-03-31T01:20:46.260Z,99256.55
2018-03-31T01:23:13.995Z,99249.23
2018-03-31T01:25:41.731Z,99239.59
2018-03-31T01:28:09.464Z,99256.98
2018-03-31T01:30:37.196Z,99255.53
2018-03-31T01:33:04.919Z,99260.64
2018-03-31T01:35:32.652Z,99259.84
2018-03-31T01:38:00.396Z,99260.97
2018-03-31T01:40:28.137Z,99253.47
2018-03-31T01:42:55.871Z,99254.29
2018-03-31T01:45:23.639Z,99255.05
2018-03-31T01:47:51.355Z,99251.49
2018-03-31T01:50:19.087Z,99250.02
2018-03-31T01:52:46.826Z,99249.51
2018-03-31T01:55:14.594Z,99255.11
2018-03-31T01:57:42.324Z,99252.58
2018-03-31T02:00:10.057Z,99255.33
2018-03-31T02:02:37.771Z,99256.45
2018-03-31T02:05:05.499Z,99252.56
2018-03-31T02:07:33.224Z,99252.23
2018-03-31T02:10:00.963Z,99252.23
2018-03-31T02:12:28.688Z,99255.43
2018-03-31T02:14:56.411Z,99262.59
2018-03-31T02:17:24.135Z,99246.21
2018-03-31T02:19:51.859Z,99244.98
2018-03-31T02:22:19.591Z,99249.13
2018-03-31T02:24:47.311Z,99253.28
2018-03-31T02:27:15.047Z,99254.31
2018-03-31T02:29:42.767Z,99265.08
2018-03-31T02:32:10.499Z,99272.19
2018-03-31T02:34:38.228Z,99282.95
2018-03-31T02:37:05.973Z,99279.13
2018-03-31T02:39:33.700Z,99288.12
2018-03-31T02:42:01.432Z,99285.39
2018-03-31T02:44:29.177Z,99287.86
2018-03-31T02:46:56.892Z,99280.19
2018-03-31T02:49:35.328Z,99279.59
2018-03-31T02:52:03.072Z,99282.40
2018-03-31T02:54:30.788Z,99279.29
2018-03-31T02:56:58.520Z,99287.03
2018-03-31T02:59:26.247Z,99295.59
2018-03-31T03:01:53.964Z,99296.77
2018-03-31T03:04:21.699Z,99300.13
2018-03-31T03:06:49.423Z,99302.80
2018-03-31T03:09:17.164Z,99293.61
2018-03-31T03:11:44.905Z,99303.69
2018-03-31T03:14:12.646Z,99302.43
2018-03-31T03:16:40.096Z,99300.05
2018-03-31T03:19:07.551Z,99299.69
2018-03-31T03:21:34.999Z,99300.18
2018-03-31T03:24:02.453Z,99305.77
2018-03-31T03:26:29.895Z,99301.84
2018-03-31T03:28:57.395Z,99303.68
2018-03-31T03:31:24.829Z,99305.05
2018-03-31T03:33:52.328Z,99301.30
2018-03-31T03:36:19.772Z,99299.84
2018-03-31T03:38:47.231Z,99299.95
2018-03-31T03:41:14.688Z,99299.81
2018-03-31T03:43:42.144Z,99297.53
2018-03-31T03:46:09.596Z,99298.06
2018-03-31T03:48:37.072Z,99301.88
2018-03-31T03:51:04.529Z,99296.67
2018-03-31T03:53:31.975Z,99308.37
2018-03-31T03:55:59.443Z,99312.30
2018-03-31T03:58:26.901Z,99313.59
2018-03-31T04:00:54.361Z,99314.00
2018-03-31T04:03:21.804Z,99319.27
2018-03-31T04:05:49.261Z,99318.78
2018-03-31T04:08:16.712Z,99308.59
2018-03-31T04:10:44.159Z,99308.04
2018-03-31T04:13:11.633Z,99309.58
2018-03-31T04:15:39.068Z,99309.81
2018-03-31T04:18:06.547Z,99304.22
2018-03-31T04:20:34.007Z,99299.92
2018-03-31T04:23:01.451Z,99303.92
2018-03-31T04:25:28.912Z,99307.06
2018-03-31T04:27:56.363Z,99307.55
2018-03-31T04:30:23.844Z,99316.80
2018-03-31T04:32:51.290Z,99317.38
2018-03-31T04:35:18.770Z,99315.08
2018-03-31T04:37:46.229Z,99317.03
2018-03-31T04:40:13.670Z,99314.59
2018-03-31T04:42:41.128Z,99314.56
2018-03-31T04:45:08.576Z,99315.80
2018-03-31T04:47:36.032Z,99316.03
2018-03-31T04:50:03.486Z,99319.12
2018-03-31T04:52:30.947Z,99315.50
2018-03-31T04:54:58.413Z,99311.20
2018-03-31T04:57:25.860Z,99318.02
2018-03-31T04:59:53.427Z,99307.06
2018-03-31T05:02:20.886Z,99308.32
2018-03-31T05:04:48.338Z,99304.45
2018-03-31T05:07:15.792Z,99305.38
2018-03-31T05:09:43.263Z,99305.67
2018-03-31T05:12:10.719Z,99306.60
2018-03-31T05:14:38.163Z,99302.83
2018-03-31T05:17:05.624Z,99302.39
2018-03-31T05:19:33.080Z,99298.16
2018-03-31T05:22:00.543Z,99302.48
2018-03-31T05:24:27.992Z,99297.67
2018-03-31T05:26:55.452Z,99302.84
2018-03-31T05:29:22.915Z,99305.81
2018-03-31T05:31:50.364Z,99302.45
2018-03-31T05:34:17.829Z,99299.80
2018-03-31T05:36:45.280Z,99295.41
2018-03-31T05:39:12.743Z,99301.52
2018-03-31T05:41:40.577Z,99309.18
2018-03-31T05:44:08.003Z,99312.07
2018-03-31T05:46:35.461Z,99318.05
2018-03-31T05:49:02.916Z,99323.70
2018-03-31T05:51:30.368Z,99319.37
2018-03-31T05:53:57.819Z,99320.08
2018-03-31T05:56:25.265Z,99317.96
2018-03-31T05:58:52.752Z,99323.25
2018-03-31T06:01:20.196Z,99332.62
2018-03-31T06:03:47.656Z,99335.17
2018-03-31T06:06:15.099Z,99335.23
2018-03-31T06:08:42.556Z,99334.74
2018-03-31T06:11:10.007Z,99335.16
2018-03-31T06:13:37.539Z,99340.75
2018-03-31T06:16:04.993Z,99342.84
2018-03-31T06:18:32.527Z,99342.22
2018-03-31T06:21:00.001Z,99340.26
2018-03-31T06:23:27.462Z,99347.64
2018-03-31T06:25:54.915Z,99346.17
2018-03-31T06:28:22.363Z,99344.84
2018-03-31T06:30:49.823Z,99346.92
2018-03-31T06:33:17.275Z,99344.89
2018-03-31T06:35:44.735Z,99351.52
2018-03-31T06:38:12.184Z,99347.50
2018-03-31T06:40:39.647Z,99354.95
2018-03-31T06:43:07.111Z,99353.67
2018-03-31T06:45:34.627Z,99354.56
2018-03-31T06:48:02.075Z,99352.86
2018-03-31T06:50:29.532Z,99358.01
2018-03-31T06:52:56.983Z,99355.83
2018-03-31T06:55:24.440Z,99364.84
2018-03-31T06:57:51.883Z,99360.16
2018-03-31T07:00:19.332Z,99370.75
2018-03-31T07:02:46.842Z,99366.53
2018-03-31T07:05:14.291Z,99363.27
2018-03-31T07:07:41.748Z,99359.55
2018-03-31T07:10:09.250Z,99366.24
2018-03-31T07:12:36.651Z,99360.35
2018-03-31T07:15:04.100Z,99356.14
2018-03-31T07:17:31.548Z,99354.97
2018-03-31T07:19:59.025Z,99357.51
2018-03-31T07:22:26.468Z,99351.39
2018-03-31T07:24:53.916Z,99350.83
2018-03-31T07:27:21.379Z,99352.95
2018-03-31T07:29:48.825Z,99346.17
2018-03-31T07:32:16.283Z,99350.54
2018-03-31T07:34:43.739Z,99346.06
2018-03-31T07:37:11.196Z,99359.69
2018-03-31T07:39:38.643Z,99358.30
2018-03-31T07:42:06.145Z,99353.86
2018-03-31T07:44:33.587Z,99357.02
2018-03-31T07:47:01.035Z,99361.42
2018-03-31T07:49:28.499Z,99349.92
2018-03-31T07:51:55.947Z,99352.66
2018-03-31T07:54:23.408Z,99354.33
2018-03-31T07:56:50.855Z,99353.20
2018-03-31T07:59:18.315Z,99354.89
2018-03-31T08:01:45.767Z,99355.64
2018-03-31T08:04:13.223Z,99349.27
2018-03-31T08:06:40.672Z,99350.10
2018-03-31T08:09:08.142Z,99346.55
2018-03-31T08:11:35.588Z,99351.06
2018-03-31T08:14:03.051Z,99345.91
2018-03-31T08:16:30.505Z,99336.06
2018-03-31T08:18:57.956Z,99340.56
2018-03-31T08:21:25.407Z,99341.84
2018-03-31T08:23:52.860Z,99342.62
2018-03-31T08:26:20.303Z,99338.72
2018-03-31T08:28:47.747Z,99346.83
2018-03-31T08:31:15.192Z,99339.56
2018-03-31T08:33:42.651Z,99341.62
2018-03-31T08:36:10.096Z,99336.23
2018-03-31T08:38:37.539Z,99335.25
2018-03-31T08:41:05.006Z,99334.33
2018-03-31T08:43:32.458Z,99330.45
2018-03-31T08:45:59.910Z,99331.57
2018-03-31T08:48:27.347Z,99330.00
2018-03-31T08:50:54.812Z,99325.26
2018-03-31T08:53:22.257Z,99316.34
2018-03-31T08:55:49.723Z,99319.70
2018-03-31T08:58:17.172Z,99320.89
2018-03-31T09:00:46.032Z,99320.80
2018-03-31T09:03:13.484Z,99316.58
2018-03-31T09:05:40.943Z,99328.77
2018-03-31T09:08:08.397Z,99319.28
2018-03-31T09:10:35.851Z,99318.02
2018-03-31T09:13:03.295Z,99319.42
2018-03-31T09:15:30.764Z,99317.23
2018-03-31T09:17:58.210Z,99325.53
2018-03-31T09:20:25.669Z,99323.93
2018-03-31T09:22:53.107Z,99321.66
2018-03-31T09:25:20.559Z,99312.23
2018-03-31T09:27:48.020Z,99309.34
2018-03-31T09:30:15.471Z,99317.05
2018-03-31T09:32:42.927Z,99304.49
2018-03-31T09:35:34.008Z,99297.30
2018-03-31T09:38:01.467Z,99301.98
2018-03-31T09:40:28.915Z,99310.00
2018-03-31T09:42:56.374Z,99306.68
2018-03-31T09:45:23.824Z,99307.87
2018-03-31T09:47:51.283Z,99306.20
2018-03-31T09:50:18.729Z,99311.80
2018-03-31T09:52:46.184Z,99312.70
2018-03-31T09:55:13.739Z,99306.92
2018-03-31T09:57:41.191Z,99305.20
2018-03-31T10:00:08.633Z,99310.91
2018-03-31T10:02:36.088Z,99311.23
2018-03-31T10:05:03.530Z,99307.56
2018-03-31T10:07:31.011Z,99308.79
2018-03-31T10:09:58.451Z,99309.26
2018-03-31T10:12:25.933Z,99308.09
2018-03-31T10:14:53.443Z,99307.56
2018-03-31T10:17:20.904Z,99313.42
2018-03-31T10:19:48.356Z,99321.29
2018-03-31T10:22:15.876Z,99315.42
2018-03-31T10:24:43.333Z,99310.53
2018-03-31T10:27:17.493Z,99311.60
2018-03-31T10:29:44.959Z,99318.94
2018-03-31T10:32:12.420Z,99318.84
2018-03-31T10:34:39.876Z,99311.14
2018-03-31T10:37:09.345Z,99315.86
2018-03-31T10:39:36.802Z,99314.41
2018-03-31T10:42:04.271Z,99316.91
2018-03-31T10:44:31.723Z,99323.05
2018-03-31T10:46:59.171Z,99317.14
2018-03-31T10:49:26.634Z,99311.83
2018-03-31T10:51:54.076Z,99314.45
2018-03-31T10:54:21.532Z,99309.96
2018-03-31T10:56:49.003Z,99308.14
2018-03-31T10:59:17.568Z,99298.91
2018-03-31T11:01:45.012Z,99303.43
2018-03-31T11:04:12.848Z,99301.74
2018-03-31T11:06:40.288Z,99298.64
2018-03-31T11:09:07.736Z,99308.80
2018-03-31T11:11:35.245Z,99303.59
2018-03-31T11:14:02.692Z,99300.55
2018-03-31T11:16:30.160Z,99305.59
2018-03-31T11:18:58.143Z,99306.72
2018-03-31T11:21:25.642Z,99309.91
2018-03-31T11:23:54.081Z,99312.70
2018-03-31T11:26:21.546Z,99317.05
2018-03-31T11:28:48.988Z,99311.44
2018-03-31T11:31:16.455Z,99311.66
2018-03-31T11:33:43.908Z,99312.88
2018-03-31T11:36:11.367Z,99304.09
2018-03-31T11:38:38.815Z,99311.11
2018-03-31T11:41:06.271Z,99310.22
2018-03-31T11:43:33.728Z,99301.61
2018-03-31T11:46:01.172Z,99304.45
2018-03-31T11:48:28.608Z,99300.12
2018-03-31T11:50:56.059Z,99300.84
2018-03-31T11:53:23.532Z,99306.41
2018-03-31T11:55:50.993Z,99296.73
2018-03-31T11:58:18.425Z,99301.00
2018-03-31T12:00:45.888Z,99310.71
2018-03-31T12:03:13.368Z,99312.28
2018-03-31T12:05:40.816Z,99317.26
2018-03-31T12:08:08.268Z,99315.58
2018-03-31T12:10:35.734Z,99316.09
2018-03-31T12:13:03.196Z,99320.62
2018-03-31T12:15:30.706Z,99329.66
2018-03-31T12:17:58.136Z,99315.58
2018-03-31T12:20:25.612Z,99319.23
2018-03-31T12:22:53.068Z,99317.99
2018-03-31T12:25:20.528Z,99315.37
2018-03-31T12:27:47.984Z,99310.13
2018-03-31T12:30:15.523Z,99304.17
2018-03-31T12:32:45.336Z,99308.64
2018-03-31T12:35:13.803Z,99303.91
2018-03-31T12:37:41.381Z,99300.66
2018-03-31T12:40:08.920Z,99305.09
2018-03-31T12:42:36.398Z,99301.02
2018-03-31T12:45:03.892Z,99310.14
2018-03-31T12:47:31.336Z,99310.95
2018-03-31T12:49:58.822Z,99311.55
2018-03-31T12:52:26.372Z,99306.92
2018-03-31T12:54:53.878Z,99305.98
2018-03-31T12:57:21.323Z,99303.03
2018-03-31T12:59:48.784Z,99305.63
2018-03-31T13:02:16.232Z,99300.26
2018-03-31T13:04:43.690Z,99303.72
2018-03-31T13:07:11.131Z,99290.14
2018-03-31T13:09:38.595Z,99290.27
2018-03-31T13:12:06.037Z,99293.27
2018-03-31T13:14:33.492Z,99289.31
2018-03-31T13:17:00.935Z,99290.89
2018-03-31T13:19:28.392Z,99282.91
2018-03-31T13:21:55.839Z,99279.45
2018-03-31T13:24:23.327Z,99278.98
2018-03-31T13:26:50.767Z,99269.77
2018-03-31T13:29:18.253Z,99276.29
2018-03-31T13:31:45.681Z,99277.87
2018-03-31T13:34:13.135Z,99281.34
2018-03-31T13:36:40.628Z,99278.81
2018-03-31T13:39:08.076Z,99272.88
2018-03-31T13:41:35.527Z,99271.66
2018-03-31T13:44:02.977Z,99274.81
2018-03-31T13:46:30.436Z,99273.30
2018-03-31T13:48:57.881Z,99271.41
2018-03-31T13:51:25.337Z,99277.29
2018-03-31T13:53:52.791Z,99279.69
2018-03-31T13:56:20.297Z,99276.25
2018-03-31T13:58:47.691Z,99273.61
2018-03-31T14:01:15.158Z,99280.10
2018-03-31T14:03:42.617Z,99282.98
2018-03-31T14:06:10.080Z,99279.43
2018-03-31T14:08:37.524Z,99281.48
2018-03-31T14:11:04.976Z,99281.14
2018-03-31T14:13:32.428Z,99275.52
2018-03-31T14:15:59.888Z,99274.20
2018-03-31T14:18:27.353Z,99269.47
2018-03-31T14:20:54.835Z,99261.39
2018-03-31T14:23:22.293Z,99265.72
2018-03-31T14:25:49.744Z,99270.18
2018-03-31T14:28:17.227Z,99267.30
2018-03-31T14:30:44.681Z,99265.16
2018-03-31T14:33:12.135Z,99268.58
2018-03-31T14:35:39.586Z,99269.69
2018-03-31T14:38:07.039Z,99272.99
2018-03-31T14:40:34.485Z,99266.59
2018-03-31T14:43:01.944Z,99271.27
2018-03-31T14:45:29.413Z,99273.27
2018-03-31T14:47:56.871Z,99268.30
2018-03-31T14:50:24.314Z,99271.86
2018-03-31T14:52:51.768Z,99274.76
2018-03-31T14:55:19.256Z,99284.20
2018-03-31T14:57:46.760Z,99290.20
2018-03-31T15:00:14.216Z,99288.28
2018-03-31T15:02:41.697Z,99282.86
2018-03-31T15:05:09.148Z,99285.75
2018-03-31T15:07:36.959Z,99288.51
2018-03-31T15:10:04.405Z,99288.51
2018-03-31T15:12:31.847Z,99293.09
2018-03-31T15:14:59.303Z,99285.55
2018-03-31T15:17:26.752Z,99296.50
2018-03-31T15:19:54.204Z,99291.30
2018-03-31T15:22:21.667Z,99292.59
2018-03-31T15:24:49.123Z,99286.53
2018-03-31T15:27:16.572Z,99287.87
2018-03-31T15:29:44.024Z,99281.11
2018-03-31T15:32:16.746Z,99287.44
2018-03-31T15:34:45.110Z,99284.23
2018-03-31T15:37:12.551Z,99286.30
2018-03-31T15:39:40.001Z,99288.45
2018-03-31T15:42:07.448Z,99292.92
2018-03-31T15:44:34.912Z,99288.36
2018-03-31T15:47:02.357Z,99287.07
2018-03-31T15:49:30.709Z,99284.77
2018-03-31T15:51:58.156Z,99280.09
2018-03-31T15:54:25.633Z,99280.42
2018-03-31T15:56:53.060Z,99273.89
2018-03-31T15:59:20.534Z,99287.84
2018-03-31T16:01:48.016Z,99283.12
2018-03-31T16:04:15.428Z,99281.28
2018-03-31T16:06:43.320Z,99281.41
2018-03-31T16:09:10.756Z,99287.64
2018-03-31T16:11:38.207Z,99278.64
2018-03-31T16:14:05.648Z,99294.05
2018-03-31T16:16:33.103Z,99293.28
2018-03-31T16:19:00.549Z,99291.78
2018-03-31T16:21:28.009Z,99289.94
2018-03-31T16:23:55.460Z,99295.74
2018-03-31T16:26:22.910Z,99291.50
2018-03-31T16:28:51.304Z,99296.85
2018-03-31T16:31:18.748Z,99295.83
2018-03-31T16:33:46.208Z,99305.39
2018-03-31T16:36:13.656Z,99304.23
2018-03-31T16:38:41.104Z,99307.43
2018-03-31T16:41:08.550Z,99308.09
2018-03-31T16:43:36.013Z,99309.62
2018-03-31T16:46:03.464Z,99306.70
2018-03-31T16:48:33.827Z,99308.53
2018-03-31T16:51:01.270Z,99315.43
2018-03-31T16:53:28.728Z,99320.35
2018-03-31T16:55:56.176Z,99322.33
2018-03-31T16:58:23.631Z,99321.47
2018-03-31T17:00:51.162Z,99321.84
2018-03-31T17:03:18.599Z,99317.98
2018-03-31T17:05:46.058Z,99325.10
2018-03-31T17:08:13.495Z,99325.58
2018-03-31T17:10:40.959Z,99328.96
2018-03-31T17:13:08.443Z,99325.84
2018-03-31T17:15:35.916Z,99320.87
2018-03-31T17:18:03.367Z,99326.70
2018-03-31T17:20:30.848Z,99328.44
2018-03-31T17:22:58.354Z,99325.70
2018-03-31T17:25:25.748Z,99331.80
2018-03-31T17:27:53.208Z,99332.80
2018-03-31T17:30:20.691Z,99332.09
2018-03-31T17:32:48.112Z,99329.86
2018-03-31T17:35:15.563Z,99332.05
2018-03-31T17:37:43.024Z,99334.52
2018-03-31T17:40:10.468Z,99337.27
2018-03-31T17:42:37.937Z,99337.23
2018-03-31T17:45:05.387Z,99340.70
2018-03-31T17:47:32.844Z,99342.19
2018-03-31T17:50:00.288Z,99344.59
2018-03-31T17:52:29.398Z,99347.28
2018-03-31T17:54:56.988Z,99353.36
2018-03-31T17:57:24.431Z,99352.61
2018-03-31T17:59:51.894Z,99352.83
2018-03-31T18:02:19.407Z,99354.34
2018-03-31T18:04:46.864Z,99352.91
2018-03-31T18:07:14.310Z,99356.49
2018-03-31T18:09:41.763Z,99356.78
2018-03-31T18:12:09.213Z,99360.78
2018-03-31T18:14:36.667Z,99366.17
2018-03-31T18:17:04.152Z,99367.64
2018-03-31T18:19:31.600Z,99366.65
2018-03-31T18:21:59.048Z,99374.91
2018-03-31T18:24:26.513Z,99377.18
2018-03-31T18:26:53.956Z,99374.91
2018-03-31T18:29:21.404Z,99387.94
2018-03-31T18:31:48.864Z,99383.95
2018-03-31T18:34:16.307Z,99392.53
2018-03-31T18:36:43.764Z,99388.44
2018-03-31T18:39:11.220Z,99389.06
2018-03-31T18:41:38.667Z,99394.70
2018-03-31T18:44:06.116Z,99397.17
2018-03-31T18:46:33.575Z,99396.41
2018-03-31T18:49:01.081Z,99398.50
2018-03-31T18:51:28.543Z,99402.80
2018-03-31T18:53:56.020Z,99398.86
2018-03-31T18:56:23.479Z,99406.02
2018-03-31T18:58:50.924Z,99416.02
2018-03-31T19:01:18.371Z,99415.99
2018-03-31T19:03:45.824Z,99419.02
2018-03-31T19:06:13.280Z,99423.25
2018-03-31T19:08:40.736Z,99428.28
2018-03-31T19:11:08.184Z,99426.53
2018-03-31T19:13:35.846Z,99436.84
2018-03-31T19:16:03.288Z,99434.22
2018-03-31T19:18:30.748Z,99440.86
2018-03-31T19:20:58.201Z,99440.34
2018-03-31T19:23:25.659Z,99437.09
2018-03-31T19:25:53.103Z,99439.83
2018-03-31T19:28:20.817Z,99443.56
2018-03-31T19:30:50.047Z,99440.88
2018-03-31T19:33:17.499Z,99454.66
2018-03-31T19:35:50.572Z,99455.64
2018-03-31T19:38:18.068Z,99452.17
2018-03-31T19:40:45.524Z,99460.70
2018-03-31T19:43:12.972Z,99461.11
2018-03-31T19:45:40.431Z,99469.69
2018-03-31T19:48:07.880Z,99477.17
2018-03-31T19:50:35.374Z,99484.83
2018-03-31T19:53:02.779Z,99488.61
2018-03-31T19:55:30.240Z,99488.94
2018-03-31T19:57:57.707Z,99490.44
2018-03-31T20:00:25.172Z,99497.94
2018-03-31T20:02:52.620Z,99504.09
2018-03-31T20:05:20.063Z,99509.45
2018-03-31T20:07:47.516Z,99521.34
2018-03-31T20:10:14.994Z,99521.37
2018-03-31T20:12:42.415Z,99530.35
2018-03-31T20:15:09.863Z,99535.94
2018-03-31T20:17:37.324Z,99547.91
2018-03-31T20:20:04.772Z,99557.47
2018-03-31T20:22:33.273Z,99565.08
2018-03-31T20:25:00.727Z,99557.80
2018-03-31T20:27:28.175Z,99572.52
2018-03-31T20:29:55.628Z,99576.30
2018-03-31T20:32:23.091Z,99581.20
2018-03-31T20:34:50.544Z,99578.00
2018-03-31T20:37:17.991Z,99580.56
2018-03-31T20:39:45.459Z,99583.38
2018-03-31T20:42:12.896Z,99587.17
2018-03-31T20:44:40.354Z,99587.40
2018-03-31T20:47:07.801Z,99590.16
2018-03-31T20:49:35.259Z,99594.69
2018-03-31T20:52:02.703Z,99595.41
2018-03-31T20:54:30.165Z,99607.70
2018-03-31T20:56:57.622Z,99601.44
2018-03-31T20:59:25.075Z,99611.09
2018-03-31T21:01:52.523Z,99607.33
2018-03-31T21:04:19.963Z,99613.18
2018-03-31T21:06:47.419Z,99612.78
2018-03-31T21:09:14.864Z,99618.08
2018-03-31T21:11:42.315Z,99617.50
2018-03-31T21:14:09.768Z,99621.69
2018-03-31T21:16:37.278Z,99615.36
2018-03-31T21:19:04.666Z,99618.77
2018-03-31T21:21:32.117Z,99622.58
2018-03-31T21:23:59.565Z,99622.37
2018-03-31T21:26:27.023Z,99617.02
2018-03-31T21:28:54.493Z,99621.48
2018-03-31T21:31:21.940Z,99617.60
2018-03-31T21:33:49.396Z,99618.53
2018-03-31T21:36:16.847Z,99625.24
2018-03-31T21:38:44.303Z,99626.26
2018-03-31T21:41:12.297Z,99630.59
2018-03-31T21:43:39.750Z,99630.29
2018-03-31T21:46:07.196Z,99628.02
2018-03-31T21:48:34.660Z,99629.30
2018-03-31T21:51:02.109Z,99631.75
2018-03-31T21:53:29.568Z,99627.44
2018-03-31T21:55:57.023Z,99630.83
2018-03-31T21:58:24.777Z,99633.79
2018-03-31T22:00:52.219Z,99634.38
2018-03-31T22:03:19.667Z,99632.17
2018-03-31T22:05:47.189Z,99632.52
2018-03-31T22:08:14.609Z,99639.48
2018-03-31T22:10:42.065Z,99641.75
2018-03-31T22:13:15.052Z,99636.99
2018-03-31T22:15:48.004Z,99636.55
2018-03-31T22:18:15.448Z,99637.02
2018-03-31T22:20:42.895Z,99640.09
2018-03-31T22:23:10.339Z,99636.14
2018-03-31T22:25:37.797Z,99638.47
2018-03-31T22:28:05.244Z,99641.78
2018-03-31T22:30:32.711Z,99638.23
2018-03-31T22:33:00.163Z,99633.41
2018-03-31T22:35:28.284Z,99622.34
2018-03-31T22:37:55.749Z,99622.77
2018-03-31T22:40:23.192Z,99624.48
2018-03-31T22:42:50.657Z,99619.73
2018-03-31T22:45:18.113Z,99620.47
2018-03-31T22:47:45.575Z,99629.72
2018-03-31T22:50:13.023Z,99631.30
2018-03-31T22:52:40.484Z,99636.83
2018-03-31T22:55:07.930Z,99644.48
2018-03-31T22:57:35.632Z,99640.84
2018-03-31T23:00:03.077Z,99640.48
2018-03-31T23:02:30.528Z,99646.59
2018-03-31T23:04:58.271Z,99646.45
2018-03-31T23:07:26.000Z,99654.86
2018-03-31T23:09:53.732Z,99654.12
2018-03-31T23:12:21.494Z,99653.14
2018-03-31T23:14:49.195Z,99657.22
2018-03-31T23:17:16.915Z,99651.20
2018-03-31T23:19:44.653Z,99649.87
2018-03-31T23:22:12.375Z,99656.77
2018-03-31T23:24:40.112Z,99654.79
2018-03-31T23:27:07.842Z,99654.01
2018-03-31T23:29:35.596Z,99663.81
2018-03-31T23:32:03.324Z,99663.27
2018-03-31T23:34:31.112Z,99671.05
2018-03-31T23:36:58.792Z,99681.66
2018-03-31T23:39:26.235Z,99686.43
2018-03-31T23:41:53.692Z,99680.05
2018-03-31T23:44:21.136Z,99683.88
2018-03-31T23:46:48.601Z,99682.96
2018-03-31T23:49:16.046Z,99678.16
2018-03-31T23:51:43.512Z,99685.61
2018-03-31T23:54:10.963Z,99686.26
2018-03-31T23:56:38.419Z,99685.88
2018-03-31T23:59:05.884Z,99687.50
